sensor_id;sensor_type;location;lat;lon;timestamp;pressure;altitude;pressure_sealevel;temperature;humidity
65173;BME280;51758;52.218;5.172;2022-12-18T00:01:00;102701.56;;;-3.87;100.00
65173;BME280;51758;52.218;5.172;2022-12-18T00:03:32;102697.63;;;-3.99;100.00
65173;BME280;51758;52.218;5.172;2022-12-18T00:06:00;102695.69;;;-3.90;100.00
65173;BME280;51758;52.218;5.172;2022-12-18T00:08:29;102697.94;;;-3.78;100.00
65173;BME280;51758;52.218;5.172;2022-12-18T00:11:03;102685.28;;;-3.81;100.00
65173;BME280;51758;52.218;5.172;2022-12-18T00:13:33;102671.41;;;-4.05;100.00
65173;BME280;51758;52.218;5.172;2022-12-18T00:16:03;102687.81;;;-3.81;100.00
65173;BME280;51758;52.218;5.172;2022-12-18T00:18:31;102691.41;;;-3.88;100.00
65173;BME280;51758;52.218;5.172;2022-12-18T00:21:00;102696.50;;;-3.88;100.00
65173;BME280;51758;52.218;5.172;2022-12-18T00:23:28;102693.06;;;-3.87;100.00
65173;BME280;51758;52.218;5.172;2022-12-18T00:25:58;102691.09;;;-4.09;100.00
65173;BME280;51758;52.218;5.172;2022-12-18T00:28:26;102694.81;;;-3.89;100.00
65173;BME280;51758;52.218;5.172;2022-12-18T00:31:00;102684.88;;;-3.99;100.00
65173;BME280;51758;52.218;5.172;2022-12-18T00:33:29;102693.56;;;-4.06;100.00
65173;BME280;51758;52.218;5.172;2022-12-18T00:36:00;102651.09;;;-4.42;100.00
65173;BME280;51758;52.218;5.172;2022-12-18T00:38:28;102693.47;;;-4.03;100.00
65173;BME280;51758;52.218;5.172;2022-12-18T00:40:56;102680.66;;;-4.01;100.00
65173;BME280;51758;52.218;5.172;2022-12-18T00:43:23;102668.22;;;-4.13;100.00
65173;BME280;51758;52.218;5.172;2022-12-18T00:45:50;102689.19;;;-4.02;100.00
65173;BME280;51758;52.218;5.172;2022-12-18T00:48:18;102691.25;;;-3.82;100.00
65173;BME280;51758;52.218;5.172;2022-12-18T00:50:48;102697.00;;;-3.76;100.00
65173;BME280;51758;52.218;5.172;2022-12-18T00:53:17;102698.19;;;-3.87;100.00
65173;BME280;51758;52.218;5.172;2022-12-18T00:55:45;102696.88;;;-4.04;100.00
65173;BME280;51758;52.218;5.172;2022-12-18T00:58:15;102690.09;;;-4.05;100.00
65173;BME280;51758;52.218;5.172;2022-12-18T01:00:43;102684.91;;;-4.00;100.00
65173;BME280;51758;52.218;5.172;2022-12-18T01:03:13;102690.22;;;-4.08;100.00
65173;BME280;51758;52.218;5.172;2022-12-18T01:05:41;102688.47;;;-4.06;100.00
65173;BME280;51758;52.218;5.172;2022-12-18T01:08:11;102683.75;;;-3.88;100.00
65173;BME280;51758;52.218;5.172;2022-12-18T01:10:40;102671.06;;;-4.24;100.00
65173;BME280;51758;52.218;5.172;2022-12-18T01:13:08;102691.41;;;-4.21;100.00
65173;BME280;51758;52.218;5.172;2022-12-18T01:15:35;102687.44;;;-4.32;100.00
65173;BME280;51758;52.218;5.172;2022-12-18T01:18:03;102687.41;;;-4.31;100.00
65173;BME280;51758;52.218;5.172;2022-12-18T01:20:31;102689.22;;;-4.36;100.00
65173;BME280;51758;52.218;5.172;2022-12-18T01:22:58;102695.06;;;-4.31;100.00
65173;BME280;51758;52.218;5.172;2022-12-18T01:25:27;102690.34;;;-4.48;100.00
65173;BME280;51758;52.218;5.172;2022-12-18T01:27:55;102693.75;;;-4.47;100.00
65173;BME280;51758;52.218;5.172;2022-12-18T01:30:23;102694.78;;;-4.56;100.00
65173;BME280;51758;52.218;5.172;2022-12-18T01:32:51;102693.72;;;-4.46;100.00
65173;BME280;51758;52.218;5.172;2022-12-18T01:35:18;102695.28;;;-4.42;100.00
65173;BME280;51758;52.218;5.172;2022-12-18T01:37:46;102702.63;;;-4.29;100.00
65173;BME280;51758;52.218;5.172;2022-12-18T01:40:14;102702.09;;;-4.42;100.00
65173;BME280;51758;52.218;5.172;2022-12-18T01:42:43;102698.94;;;-4.52;100.00
65173;BME280;51758;52.218;5.172;2022-12-18T01:45:32;102687.72;;;-4.45;100.00
65173;BME280;51758;52.218;5.172;2022-12-18T01:48:01;102688.16;;;-4.63;100.00
65173;BME280;51758;52.218;5.172;2022-12-18T01:50:32;102699.44;;;-4.73;100.00
65173;BME280;51758;52.218;5.172;2022-12-18T01:53:04;102711.34;;;-4.74;100.00
65173;BME280;51758;52.218;5.172;2022-12-18T01:55:36;102716.94;;;-4.58;100.00
65173;BME280;51758;52.218;5.172;2022-12-18T01:58:07;102725.88;;;-4.42;100.00
65173;BME280;51758;52.218;5.172;2022-12-18T02:00:35;102733.91;;;-4.57;100.00
65173;BME280;51758;52.218;5.172;2022-12-18T02:03:02;102722.25;;;-4.69;100.00
65173;BME280;51758;52.218;5.172;2022-12-18T02:05:40;102725.50;;;-4.60;100.00
65173;BME280;51758;52.218;5.172;2022-12-18T02:08:15;102733.69;;;-4.48;100.00
65173;BME280;51758;52.218;5.172;2022-12-18T02:10:50;102737.91;;;-4.47;100.00
65173;BME280;51758;52.218;5.172;2022-12-18T02:13:30;102738.63;;;-4.42;100.00
65173;BME280;51758;52.218;5.172;2022-12-18T02:16:03;102752.44;;;-4.50;100.00
65173;BME280;51758;52.218;5.172;2022-12-18T02:18:36;102752.22;;;-4.41;100.00
65173;BME280;51758;52.218;5.172;2022-12-18T02:21:11;102760.84;;;-4.45;100.00
65173;BME280;51758;52.218;5.172;2022-12-18T02:23:47;102752.91;;;-4.33;100.00
65173;BME280;51758;52.218;5.172;2022-12-18T02:26:19;102748.34;;;-4.20;100.00
65173;BME280;51758;52.218;5.172;2022-12-18T02:28:52;102755.22;;;-4.24;100.00
65173;BME280;51758;52.218;5.172;2022-12-18T02:31:25;102738.28;;;-4.26;100.00
65173;BME280;51758;52.218;5.172;2022-12-18T02:33:56;102737.03;;;-4.44;100.00
65173;BME280;51758;52.218;5.172;2022-12-18T02:36:27;102736.94;;;-4.43;100.00
65173;BME280;51758;52.218;5.172;2022-12-18T02:38:56;102739.78;;;-4.55;100.00
65173;BME280;51758;52.218;5.172;2022-12-18T02:41:26;102741.88;;;-4.71;100.00
65173;BME280;51758;52.218;5.172;2022-12-18T02:43:57;102686.25;;;-4.92;100.00
65173;BME280;51758;52.218;5.172;2022-12-18T02:46:29;102709.41;;;-4.64;100.00
65173;BME280;51758;52.218;5.172;2022-12-18T02:49:06;102717.00;;;-4.61;100.00
65173;BME280;51758;52.218;5.172;2022-12-18T02:51:43;102718.34;;;-4.82;100.00
65173;BME280;51758;52.218;5.172;2022-12-18T02:54:21;102704.47;;;-4.70;100.00
65173;BME280;51758;52.218;5.172;2022-12-18T02:56:55;102703.63;;;-4.71;100.00
65173;BME280;51758;52.218;5.172;2022-12-18T02:59:30;102697.09;;;-4.82;100.00
65173;BME280;51758;52.218;5.172;2022-12-18T03:02:06;102703.47;;;-5.01;100.00
65173;BME280;51758;52.218;5.172;2022-12-18T03:04:39;102696.28;;;-4.83;100.00
65173;BME280;51758;52.218;5.172;2022-12-18T03:07:15;102697.25;;;-4.90;100.00
65173;BME280;51758;52.218;5.172;2022-12-18T03:09:48;102701.94;;;-5.09;100.00
65173;BME280;51758;52.218;5.172;2022-12-18T03:12:21;102644.72;;;-5.32;100.00
65173;BME280;51758;52.218;5.172;2022-12-18T03:14:56;102692.03;;;-4.84;100.00
65173;BME280;51758;52.218;5.172;2022-12-18T03:17:26;102683.47;;;-4.81;100.00
65173;BME280;51758;52.218;5.172;2022-12-18T03:19:58;102681.63;;;-4.75;100.00
65173;BME280;51758;52.218;5.172;2022-12-18T03:22:30;102675.00;;;-4.82;100.00
65173;BME280;51758;52.218;5.172;2022-12-18T03:25:01;102662.59;;;-4.95;100.00
65173;BME280;51758;52.218;5.172;2022-12-18T03:27:33;102668.47;;;-4.93;100.00
65173;BME280;51758;52.218;5.172;2022-12-18T03:30:05;102660.63;;;-4.84;100.00
65173;BME280;51758;52.218;5.172;2022-12-18T03:32:39;102661.66;;;-4.93;100.00
65173;BME280;51758;52.218;5.172;2022-12-18T03:35:11;102653.13;;;-4.92;100.00
65173;BME280;51758;52.218;5.172;2022-12-18T03:37:40;102664.06;;;-4.87;100.00
65173;BME280;51758;52.218;5.172;2022-12-18T03:40:09;102659.97;;;-4.94;100.00
65173;BME280;51758;52.218;5.172;2022-12-18T03:42:45;102652.78;;;-5.14;100.00
65173;BME280;51758;52.218;5.172;2022-12-18T03:45:19;102653.50;;;-5.07;100.00
65173;BME280;51758;52.218;5.172;2022-12-18T03:47:55;102654.44;;;-5.11;100.00
65173;BME280;51758;52.218;5.172;2022-12-18T03:50:33;102651.13;;;-5.16;100.00
65173;BME280;51758;52.218;5.172;2022-12-18T03:53:14;102657.13;;;-5.19;100.00
65173;BME280;51758;52.218;5.172;2022-12-18T03:55:45;102650.56;;;-5.29;100.00
65173;BME280;51758;52.218;5.172;2022-12-18T03:58:17;102652.41;;;-5.35;100.00
65173;BME280;51758;52.218;5.172;2022-12-18T04:00:49;102647.34;;;-5.37;100.00
65173;BME280;51758;52.218;5.172;2022-12-18T04:03:18;102642.84;;;-5.24;100.00
65173;BME280;51758;52.218;5.172;2022-12-18T04:05:52;102645.38;;;-5.24;100.00
65173;BME280;51758;52.218;5.172;2022-12-18T04:08:21;102636.00;;;-5.22;100.00
65173;BME280;51758;52.218;5.172;2022-12-18T04:10:50;102627.50;;;-5.21;100.00
65173;BME280;51758;52.218;5.172;2022-12-18T04:13:23;102620.75;;;-5.24;100.00
65173;BME280;51758;52.218;5.172;2022-12-18T04:15:51;102616.63;;;-5.29;100.00
65173;BME280;51758;52.218;5.172;2022-12-18T04:18:19;102625.19;;;-5.32;100.00
65173;BME280;51758;52.218;5.172;2022-12-18T04:20:47;102618.34;;;-5.30;100.00
65173;BME280;51758;52.218;5.172;2022-12-18T04:23:14;102614.25;;;-5.37;100.00
65173;BME280;51758;52.218;5.172;2022-12-18T04:25:42;102625.28;;;-5.36;100.00
65173;BME280;51758;52.218;5.172;2022-12-18T04:28:10;102623.66;;;-5.41;100.00
65173;BME280;51758;52.218;5.172;2022-12-18T04:30:39;102631.41;;;-5.45;100.00
65173;BME280;51758;52.218;5.172;2022-12-18T04:33:08;102633.25;;;-5.53;100.00
65173;BME280;51758;52.218;5.172;2022-12-18T04:35:36;102635.66;;;-5.46;100.00
65173;BME280;51758;52.218;5.172;2022-12-18T04:38:05;102642.72;;;-5.58;100.00
65173;BME280;51758;52.218;5.172;2022-12-18T04:40:32;102643.63;;;-5.62;100.00
65173;BME280;51758;52.218;5.172;2022-12-18T04:43:00;102646.25;;;-5.67;100.00
65173;BME280;51758;52.218;5.172;2022-12-18T04:45:28;102657.50;;;-5.79;100.00
65173;BME280;51758;52.218;5.172;2022-12-18T04:47:58;102655.06;;;-5.83;100.00
65173;BME280;51758;52.218;5.172;2022-12-18T04:50:25;102651.75;;;-5.87;100.00
65173;BME280;51758;52.218;5.172;2022-12-18T04:52:53;102636.78;;;-6.00;100.00
65173;BME280;51758;52.218;5.172;2022-12-18T04:55:24;102649.25;;;-5.88;100.00
65173;BME280;51758;52.218;5.172;2022-12-18T04:57:52;102676.97;;;-5.76;100.00
65173;BME280;51758;52.218;5.172;2022-12-18T05:00:20;102677.03;;;-5.79;100.00
65173;BME280;51758;52.218;5.172;2022-12-18T05:02:48;102682.97;;;-5.80;100.00
65173;BME280;51758;52.218;5.172;2022-12-18T05:05:17;102667.72;;;-5.80;100.00
65173;BME280;51758;52.218;5.172;2022-12-18T05:07:45;102682.84;;;-5.72;100.00
65173;BME280;51758;52.218;5.172;2022-12-18T05:10:13;102670.47;;;-5.89;100.00
65173;BME280;51758;52.218;5.172;2022-12-18T05:12:40;102685.47;;;-5.77;100.00
65173;BME280;51758;52.218;5.172;2022-12-18T05:15:22;102692.19;;;-5.73;100.00
65173;BME280;51758;52.218;5.172;2022-12-18T05:17:50;102694.72;;;-5.73;100.00
65173;BME280;51758;52.218;5.172;2022-12-18T05:20:19;102699.91;;;-5.78;100.00
65173;BME280;51758;52.218;5.172;2022-12-18T05:22:46;102699.06;;;-5.78;100.00
65173;BME280;51758;52.218;5.172;2022-12-18T05:25:14;102710.16;;;-5.82;100.00
65173;BME280;51758;52.218;5.172;2022-12-18T05:27:42;102716.16;;;-5.85;100.00
65173;BME280;51758;52.218;5.172;2022-12-18T05:30:10;102718.72;;;-5.86;100.00
65173;BME280;51758;52.218;5.172;2022-12-18T05:32:39;102716.84;;;-5.77;100.00
65173;BME280;51758;52.218;5.172;2022-12-18T05:35:09;102716.88;;;-5.80;100.00
65173;BME280;51758;52.218;5.172;2022-12-18T05:37:38;102709.41;;;-5.87;100.00
65173;BME280;51758;52.218;5.172;2022-12-18T05:40:10;102696.91;;;-5.98;100.00
65173;BME280;51758;52.218;5.172;2022-12-18T05:42:38;102684.19;;;-5.98;100.00
65173;BME280;51758;52.218;5.172;2022-12-18T05:45:06;102683.34;;;-5.97;100.00
65173;BME280;51758;52.218;5.172;2022-12-18T05:47:34;102688.44;;;-5.97;100.00
65173;BME280;51758;52.218;5.172;2022-12-18T05:50:02;102685.09;;;-6.02;100.00
65173;BME280;51758;52.218;5.172;2022-12-18T05:52:30;102685.94;;;-6.01;100.00
65173;BME280;51758;52.218;5.172;2022-12-18T05:54:59;102677.53;;;-6.05;100.00
65173;BME280;51758;52.218;5.172;2022-12-18T05:57:27;102664.78;;;-6.03;100.00
65173;BME280;51758;52.218;5.172;2022-12-18T05:59:54;102663.84;;;-5.98;100.00
65173;BME280;51758;52.218;5.172;2022-12-18T06:02:22;102675.75;;;-6.00;100.00
65173;BME280;51758;52.218;5.172;2022-12-18T06:04:50;102666.53;;;-6.07;100.00
65173;BME280;51758;52.218;5.172;2022-12-18T06:07:18;102675.81;;;-6.04;100.00
65173;BME280;51758;52.218;5.172;2022-12-18T06:09:45;102662.28;;;-6.05;100.00
65173;BME280;51758;52.218;5.172;2022-12-18T06:12:14;102660.66;;;-6.09;100.00
65173;BME280;51758;52.218;5.172;2022-12-18T06:14:42;102654.88;;;-6.19;100.00
65173;BME280;51758;52.218;5.172;2022-12-18T06:17:09;102662.50;;;-6.17;100.00
65173;BME280;51758;52.218;5.172;2022-12-18T06:19:37;102652.44;;;-6.23;100.00
65173;BME280;51758;52.218;5.172;2022-12-18T06:22:05;102659.22;;;-6.24;100.00
65173;BME280;51758;52.218;5.172;2022-12-18T06:24:32;102666.81;;;-6.21;100.00
65173;BME280;51758;52.218;5.172;2022-12-18T06:27:00;102658.28;;;-6.20;100.00
65173;BME280;51758;52.218;5.172;2022-12-18T06:29:30;102655.69;;;-6.17;100.00
65173;BME280;51758;52.218;5.172;2022-12-18T06:31:57;102648.19;;;-6.21;100.00
65173;BME280;51758;52.218;5.172;2022-12-18T06:34:25;102645.56;;;-6.20;100.00
65173;BME280;51758;52.218;5.172;2022-12-18T06:36:53;102643.00;;;-6.18;100.00
65173;BME280;51758;52.218;5.172;2022-12-18T06:39:20;102636.16;;;-6.13;100.00
65173;BME280;51758;52.218;5.172;2022-12-18T06:41:48;102630.28;;;-6.17;100.00
65173;BME280;51758;52.218;5.172;2022-12-18T06:44:16;102627.78;;;-6.20;100.00
65173;BME280;51758;52.218;5.172;2022-12-18T06:46:45;102621.00;;;-6.19;100.00
65173;BME280;51758;52.218;5.172;2022-12-18T06:49:12;102615.91;;;-6.19;100.00
65173;BME280;51758;52.218;5.172;2022-12-18T06:51:41;102607.53;;;-6.24;100.00
65173;BME280;51758;52.218;5.172;2022-12-18T06:54:08;102616.09;;;-6.28;100.00
65173;BME280;51758;52.218;5.172;2022-12-18T06:56:36;102613.50;;;-6.27;100.00
65173;BME280;51758;52.218;5.172;2022-12-18T06:59:04;102603.41;;;-6.30;100.00
65173;BME280;51758;52.218;5.172;2022-12-18T07:01:31;102598.31;;;-6.30;100.00
65173;BME280;51758;52.218;5.172;2022-12-18T07:04:00;102596.63;;;-6.31;100.00
65173;BME280;51758;52.218;5.172;2022-12-18T07:06:28;102601.66;;;-6.28;100.00
65173;BME280;51758;52.218;5.172;2022-12-18T07:08:56;102584.78;;;-6.32;100.00
65173;BME280;51758;52.218;5.172;2022-12-18T07:11:24;102593.94;;;-6.22;100.00
65173;BME280;51758;52.218;5.172;2022-12-18T07:13:52;102596.53;;;-6.25;100.00
65173;BME280;51758;52.218;5.172;2022-12-18T07:16:20;102593.78;;;-6.14;100.00
65173;BME280;51758;52.218;5.172;2022-12-18T07:18:51;102593.94;;;-6.22;100.00
65173;BME280;51758;52.218;5.172;2022-12-18T07:21:21;102591.28;;;-6.16;100.00
65173;BME280;51758;52.218;5.172;2022-12-18T07:23:49;102594.66;;;-6.15;100.00
65173;BME280;51758;52.218;5.172;2022-12-18T07:26:19;102593.00;;;-6.18;100.00
65173;BME280;51758;52.218;5.172;2022-12-18T07:28:47;102586.31;;;-6.22;100.00
65173;BME280;51758;52.218;5.172;2022-12-18T07:31:17;102586.31;;;-6.22;100.00
65173;BME280;51758;52.218;5.172;2022-12-18T07:33:47;102572.69;;;-6.19;100.00
65173;BME280;51758;52.218;5.172;2022-12-18T07:36:15;102559.22;;;-6.23;100.00
65173;BME280;51758;52.218;5.172;2022-12-18T07:38:46;102572.63;;;-6.16;100.00
65173;BME280;51758;52.218;5.172;2022-12-18T07:41:14;102572.56;;;-6.11;100.00
65173;BME280;51758;52.218;5.172;2022-12-18T07:43:41;102565.81;;;-6.12;100.00
65173;BME280;51758;52.218;5.172;2022-12-18T07:46:11;102535.47;;;-6.22;100.00
65173;BME280;51758;52.218;5.172;2022-12-18T07:48:40;102549.72;;;-6.15;100.00
65173;BME280;51758;52.218;5.172;2022-12-18T07:51:12;102541.22;;;-6.12;100.00
65173;BME280;51758;52.218;5.172;2022-12-18T07:53:41;102548.69;;;-6.04;100.00
65173;BME280;51758;52.218;5.172;2022-12-18T07:56:12;102530.25;;;-6.16;100.00
65173;BME280;51758;52.218;5.172;2022-12-18T07:58:57;102540.97;;;-6.00;100.00
65173;BME280;51758;52.218;5.172;2022-12-18T08:01:25;102540.88;;;-5.95;100.00
65173;BME280;51758;52.218;5.172;2022-12-18T08:03:53;102526.50;;;-5.96;100.00
65173;BME280;51758;52.218;5.172;2022-12-18T08:06:21;102534.13;;;-5.96;100.00
65173;BME280;51758;52.218;5.172;2022-12-18T08:08:51;102521.41;;;-5.96;100.00
65173;BME280;51758;52.218;5.172;2022-12-18T08:11:20;102525.41;;;-5.86;100.00
65173;BME280;51758;52.218;5.172;2022-12-18T08:13:48;102522.06;;;-5.88;100.00
65173;BME280;51758;52.218;5.172;2022-12-18T08:16:16;102531.19;;;-5.80;100.00
65173;BME280;51758;52.218;5.172;2022-12-18T08:18:45;102542.19;;;-5.79;100.00
65173;BME280;51758;52.218;5.172;2022-12-18T08:21:15;102547.78;;;-5.62;100.00
65173;BME280;51758;52.218;5.172;2022-12-18T08:23:43;102558.03;;;-5.66;100.00
65173;BME280;51758;52.218;5.172;2022-12-18T08:26:11;102554.63;;;-5.65;100.00
65173;BME280;51758;52.218;5.172;2022-12-18T08:28:40;102556.22;;;-5.60;100.00
65173;BME280;51758;52.218;5.172;2022-12-18T08:31:09;102563.66;;;-5.51;100.00
65173;BME280;51758;52.218;5.172;2022-12-18T08:33:37;102554.38;;;-5.53;100.00
65173;BME280;51758;52.218;5.172;2022-12-18T08:36:08;102568.66;;;-5.46;100.00
65173;BME280;51758;52.218;5.172;2022-12-18T08:38:36;102561.97;;;-5.52;100.00
65173;BME280;51758;52.218;5.172;2022-12-18T08:41:07;102554.97;;;-5.42;100.00
65173;BME280;51758;52.218;5.172;2022-12-18T08:43:34;102558.53;;;-5.49;100.00
65173;BME280;51758;52.218;5.172;2022-12-18T08:46:23;102549.91;;;-5.44;100.00
65173;BME280;51758;52.218;5.172;2022-12-18T08:48:52;102541.25;;;-5.35;100.00
65173;BME280;51758;52.218;5.172;2022-12-18T08:51:20;102540.25;;;-5.29;100.00
65173;BME280;51758;52.218;5.172;2022-12-18T08:53:47;102544.44;;;-5.27;100.00
65173;BME280;51758;52.218;5.172;2022-12-18T08:56:16;102528.38;;;-5.30;100.00
65173;BME280;51758;52.218;5.172;2022-12-18T08:58:43;102557.88;;;-5.20;100.00
65173;BME280;51758;52.218;5.172;2022-12-18T09:01:12;102548.41;;;-5.15;100.00
65173;BME280;51758;52.218;5.172;2022-12-18T09:03:41;102543.09;;;-5.06;100.00
65173;BME280;51758;52.218;5.172;2022-12-18T09:06:13;102537.06;;;-5.02;100.00
65173;BME280;51758;52.218;5.172;2022-12-18T09:08:42;102532.47;;;-4.88;100.00
65173;BME280;51758;52.218;5.172;2022-12-18T09:11:14;102534.94;;;-4.85;100.00
65173;BME280;51758;52.218;5.172;2022-12-18T09:13:43;102538.94;;;-4.75;100.00
65173;BME280;51758;52.218;5.172;2022-12-18T09:16:11;102539.66;;;-4.70;100.00
65173;BME280;51758;52.218;5.172;2022-12-18T09:18:39;102526.22;;;-4.76;100.00
65173;BME280;51758;52.218;5.172;2022-12-18T09:21:11;102540.03;;;-4.52;100.00
65173;BME280;51758;52.218;5.172;2022-12-18T09:23:39;102532.72;;;-4.64;100.00
65173;BME280;51758;52.218;5.172;2022-12-18T09:26:07;102533.25;;;-4.52;100.00
65173;BME280;51758;52.218;5.172;2022-12-18T09:28:35;102540.19;;;-4.57;100.00
65173;BME280;51758;52.218;5.172;2022-12-18T09:31:05;102530.66;;;-4.50;100.00
65173;BME280;51758;52.218;5.172;2022-12-18T09:33:34;102523.72;;;-4.45;100.00
65173;BME280;51758;52.218;5.172;2022-12-18T09:36:05;102526.44;;;-4.51;100.00
65173;BME280;51758;52.218;5.172;2022-12-18T09:38:35;102502.78;;;-4.56;100.00
65173;BME280;51758;52.218;5.172;2022-12-18T09:41:05;102519.19;;;-4.34;100.00
65173;BME280;51758;52.218;5.172;2022-12-18T09:43:45;102512.94;;;-4.24;100.00
65173;BME280;51758;52.218;5.172;2022-12-18T09:46:17;102521.53;;;-4.28;100.00
65173;BME280;51758;52.218;5.172;2022-12-18T09:48:49;102493.91;;;-4.43;100.00
65173;BME280;51758;52.218;5.172;2022-12-18T09:51:27;102512.09;;;-4.24;100.00
65173;BME280;51758;52.218;5.172;2022-12-18T09:54:00;102508.75;;;-4.26;100.00
65173;BME280;51758;52.218;5.172;2022-12-18T09:56:35;102496.41;;;-4.11;100.00
65173;BME280;51758;52.218;5.172;2022-12-18T09:59:05;102496.41;;;-4.11;100.00
65173;BME280;51758;52.218;5.172;2022-12-18T10:01:33;102489.53;;;-4.07;100.00
65173;BME280;51758;52.218;5.172;2022-12-18T10:04:09;102479.91;;;-3.99;100.00
65173;BME280;51758;52.218;5.172;2022-12-18T10:06:43;102484.00;;;-3.93;100.00
65173;BME280;51758;52.218;5.172;2022-12-18T10:09:23;102486.97;;;-3.79;100.00
65173;BME280;51758;52.218;5.172;2022-12-18T10:11:58;102486.09;;;-3.78;100.00
65173;BME280;51758;52.218;5.172;2022-12-18T10:14:37;102497.75;;;-3.70;100.00
65173;BME280;51758;52.218;5.172;2022-12-18T10:17:16;102517.09;;;-3.63;100.00
65173;BME280;51758;52.218;5.172;2022-12-18T10:19:49;102522.25;;;-3.64;100.00
65173;BME280;51758;52.218;5.172;2022-12-18T10:22:25;102501.16;;;-3.69;100.00
65173;BME280;51758;52.218;5.172;2022-12-18T10:25:02;102495.84;;;-3.63;100.00
65173;BME280;51758;52.218;5.172;2022-12-18T10:27:32;102477.97;;;-3.63;100.00
65173;BME280;51758;52.218;5.172;2022-12-18T10:30:00;102481.91;;;-3.53;100.00
65173;BME280;51758;52.218;5.172;2022-12-18T10:32:30;102482.47;;;-3.43;100.00
65173;BME280;51758;52.218;5.172;2022-12-18T10:34:58;102490.72;;;-3.35;100.00
65173;BME280;51758;52.218;5.172;2022-12-18T10:37:28;102444.25;;;-3.73;100.00
65173;BME280;51758;52.218;5.172;2022-12-18T10:40:13;102485.03;;;-3.43;100.00
65173;BME280;51758;52.218;5.172;2022-12-18T10:43:09;102472.97;;;-3.40;100.00
65173;BME280;51758;52.218;5.172;2022-12-18T10:45:38;102424.22;;;-3.58;100.00
65173;BME280;51758;52.218;5.172;2022-12-18T10:48:18;102476.72;;;-3.23;100.00
65173;BME280;51758;52.218;5.172;2022-12-18T10:50:48;102475.94;;;-3.26;100.00
65173;BME280;51758;52.218;5.172;2022-12-18T10:53:39;102464.69;;;-3.20;100.00
65173;BME280;51758;52.218;5.172;2022-12-18T10:56:10;102465.34;;;-3.15;100.00
65173;BME280;51758;52.218;5.172;2022-12-18T10:58:38;102453.47;;;-3.16;100.00
65173;BME280;51758;52.218;5.172;2022-12-18T11:01:10;102438.78;;;-3.09;100.00
65173;BME280;51758;52.218;5.172;2022-12-18T11:03:39;102434.03;;;-2.95;100.00
65173;BME280;51758;52.218;5.172;2022-12-18T11:06:09;102430.19;;;-2.82;100.00
65173;BME280;51758;52.218;5.172;2022-12-18T11:08:38;102421.03;;;-2.89;100.00
65173;BME280;51758;52.218;5.172;2022-12-18T11:11:17;102414.47;;;-2.96;100.00
65173;BME280;51758;52.218;5.172;2022-12-18T11:14:06;102440.50;;;-2.85;100.00
65173;BME280;51758;52.218;5.172;2022-12-18T11:16:46;102431.72;;;-2.78;100.00
65173;BME280;51758;52.218;5.172;2022-12-18T11:19:37;102432.06;;;-2.64;100.00
65173;BME280;51758;52.218;5.172;2022-12-18T11:22:19;102419.81;;;-2.54;100.00
65173;BME280;51758;52.218;5.172;2022-12-18T11:24:53;102399.28;;;-2.76;100.00
65173;BME280;51758;52.218;5.172;2022-12-18T11:27:47;102419.63;;;-2.49;100.00
65173;BME280;51758;52.218;5.172;2022-12-18T11:30:21;102422.19;;;-2.73;100.00
65173;BME280;51758;52.218;5.172;2022-12-18T11:32:51;102415.53;;;-2.54;100.00
65173;BME280;51758;52.218;5.172;2022-12-18T11:35:25;102418.09;;;-2.30;100.00
65173;BME280;51758;52.218;5.172;2022-12-18T11:38:02;102422.31;;;-2.29;100.00
65173;BME280;51758;52.218;5.172;2022-12-18T11:40:35;102414.31;;;-2.43;100.00
65173;BME280;51758;52.218;5.172;2022-12-18T11:43:10;102418.25;;;-2.35;100.00
65173;BME280;51758;52.218;5.172;2022-12-18T11:45:43;102415.16;;;-2.43;100.00
65173;BME280;51758;52.218;5.172;2022-12-18T11:48:17;102413.72;;;-2.52;100.00
65173;BME280;51758;52.218;5.172;2022-12-18T11:50:49;102406.63;;;-2.43;100.00
65173;BME280;51758;52.218;5.172;2022-12-18T11:53:18;102401.94;;;-2.32;100.00
65173;BME280;51758;52.218;5.172;2022-12-18T11:55:54;102394.38;;;-2.35;100.00
65173;BME280;51758;52.218;5.172;2022-12-18T11:58:43;102359.84;;;-2.24;100.00
65173;BME280;51758;52.218;5.172;2022-12-18T12:01:20;102368.41;;;-2.03;100.00
65173;BME280;51758;52.218;5.172;2022-12-18T12:04:19;102361.38;;;-1.98;100.00
65173;BME280;51758;52.218;5.172;2022-12-18T12:06:58;102354.19;;;-2.10;100.00
65173;BME280;51758;52.218;5.172;2022-12-18T12:09:33;102351.03;;;-2.17;100.00
65173;BME280;51758;52.218;5.172;2022-12-18T12:12:17;102323.94;;;-2.22;100.00
65173;BME280;51758;52.218;5.172;2022-12-18T12:14:57;102351.97;;;-1.97;100.00
65173;BME280;51758;52.218;5.172;2022-12-18T12:17:34;102346.13;;;-1.79;100.00
65173;BME280;51758;52.218;5.172;2022-12-18T12:20:10;102342.09;;;-1.85;100.00
65173;BME280;51758;52.218;5.172;2022-12-18T12:22:45;102347.69;;;-1.97;100.00
65173;BME280;51758;52.218;5.172;2022-12-18T12:25:23;102331.44;;;-1.96;100.00
65173;BME280;51758;52.218;5.172;2022-12-18T12:28:04;102347.31;;;-1.88;100.00
65173;BME280;51758;52.218;5.172;2022-12-18T12:30:42;102331.31;;;-1.93;100.00
65173;BME280;51758;52.218;5.172;2022-12-18T12:33:22;102333.13;;;-1.74;100.00
65173;BME280;51758;52.218;5.172;2022-12-18T12:36:03;102328.78;;;-1.72;100.00
65173;BME280;51758;52.218;5.172;2022-12-18T12:38:40;102327.13;;;-1.73;100.00
65173;BME280;51758;52.218;5.172;2022-12-18T12:41:19;102317.59;;;-1.70;100.00
65173;BME280;51758;52.218;5.172;2022-12-18T12:44:15;102314.31;;;-1.73;100.00
65173;BME280;51758;52.218;5.172;2022-12-18T12:46:47;102310.78;;;-1.71;100.00
65173;BME280;51758;52.218;5.172;2022-12-18T12:49:17;102305.53;;;-1.88;100.00
65173;BME280;51758;52.218;5.172;2022-12-18T12:51:55;102295.09;;;-1.63;100.00
65173;BME280;51758;52.218;5.172;2022-12-18T12:54:25;102301.13;;;-1.64;100.00
65173;BME280;51758;52.218;5.172;2022-12-18T12:56:59;102300.16;;;-1.62;100.00
65173;BME280;51758;52.218;5.172;2022-12-18T12:59:36;102298.66;;;-1.66;100.00
65173;BME280;51758;52.218;5.172;2022-12-18T13:02:15;102297.78;;;-1.46;100.00